Map

Track Data

SID SEASON NUMBER BASIN SUBBASIN NAME ISO_TIME NATURE LAT LON WMO_WIND WMO_PRES WMO_AGENCY TRACK_TYPE DIST2LAND LANDFALL IFLAG USA_AGENCY USA_ATCF_ID USA_LAT USA_LON USA_RECORD USA_STATUS USA_WIND USA_PRES USA_SSHS USA_R34_NE USA_R34_SE USA_R34_SW USA_R34_NW USA_R50_NE USA_R50_SE USA_R50_SW USA_R50_NW USA_R64_NE USA_R64_SE USA_R64_SW USA_R64_NW USA_POCI USA_ROCI USA_RMW USA_EYE TOKYO_LAT TOKYO_LON TOKYO_GRADE TOKYO_WIND TOKYO_PRES TOKYO_R50_DIR TOKYO_R50_LONG TOKYO_R50_SHORT TOKYO_R30_DIR TOKYO_R30_LONG TOKYO_R30_SHORT TOKYO_LAND CMA_LAT CMA_LON CMA_CAT CMA_WIND CMA_PRES HKO_LAT HKO_LON HKO_CAT HKO_WIND HKO_PRES NEWDELHI_LAT NEWDELHI_LON NEWDELHI_GRADE NEWDELHI_WIND NEWDELHI_PRES NEWDELHI_CI NEWDELHI_DP NEWDELHI_POCI REUNION_LAT REUNION_LON REUNION_TYPE REUNION_WIND REUNION_PRES REUNION_TNUM REUNION_CI REUNION_RMW REUNION_R34_NE REUNION_R34_SE REUNION_R34_SW REUNION_R34_NW REUNION_R50_NE REUNION_R50_SE REUNION_R50_SW REUNION_R50_NW REUNION_R64_NE REUNION_R64_SE REUNION_R64_SW REUNION_R64_NW BOM_LAT BOM_LON BOM_TYPE BOM_WIND BOM_PRES BOM_TNUM BOM_CI BOM_RMW BOM_R34_NE BOM_R34_SE BOM_R34_SW BOM_R34_NW BOM_R50_NE BOM_R50_SE BOM_R50_SW BOM_R50_NW BOM_R64_NE BOM_R64_SE BOM_R64_SW BOM_R64_NW BOM_ROCI BOM_POCI BOM_EYE BOM_POS_METHOD BOM_PRES_METHOD NADI_LAT NADI_LON NADI_CAT NADI_WIND NADI_PRES WELLINGTON_LAT WELLINGTON_LON WELLINGTON_WIND WELLINGTON_PRES DS824_LAT DS824_LON DS824_STAGE DS824_WIND DS824_PRES TD9636_LAT TD9636_LON TD9636_STAGE TD9636_WIND TD9636_PRES TD9635_LAT TD9635_LON TD9635_WIND TD9635_PRES TD9635_ROCI NEUMANN_LAT NEUMANN_LON NEUMANN_CLASS NEUMANN_WIND NEUMANN_PRES MLC_LAT MLC_LON MLC_CLASS MLC_WIND MLC_PRES USA_GUST BOM_GUST BOM_GUST_PER REUNION_GUST REUNION_GUST_PER USA_SEAHGT USA_SEARAD_NE USA_SEARAD_SE USA_SEARAD_SW USA_SEARAD_NW STORM_SPEED STORM_DIR
1952270N12337 1952 72 NA NA NOT_NAMED 1952-09-25 12:00:00 TS 12.4000 -22.7000 25 hurdat_atl main 618 618 O_____________ hurdat_atl AL081952 12.4000 -22.7000 TD 25 -1 12 279
1952270N12337 1952 72 NA NA NOT_NAMED 1952-09-25 15:00:00 TS 12.4903 -23.3150 main 673 673 P_____________ AL081952 12.4903 -23.3150 TD 27 -1 12 280
1952270N12337 1952 72 NA NA NOT_NAMED 1952-09-25 18:00:00 TS 12.6000 -23.9000 30 hurdat_atl main 730 730 O_____________ hurdat_atl AL081952 12.6000 -23.9000 TD 30 -1 11 283
1952270N12337 1952 72 NA NA NOT_NAMED 1952-09-25 21:00:00 TS 12.7424 -24.4300 main 778 778 P_____________ AL081952 12.7424 -24.4300 TD 30 -1 10 287
1952270N12337 1952 72 NA NA NOT_NAMED 1952-09-26 00:00:00 TS 12.9000 -24.9000 30 hurdat_atl main 824 824 O_____________ hurdat_atl AL081952 12.9000 -24.9000 TD 30 -1 9 289
1952270N12337 1952 72 NA NA NOT_NAMED 1952-09-26 03:00:00 TS 13.0499 -25.3300 main 863 863 P_____________ AL081952 13.0499 -25.3300 TD 32 -1 8 291
1952270N12337 1952 72 NA NA NOT_NAMED 1952-09-26 06:00:00 TS 13.2000 -25.7000 35 hurdat_atl main 901 901 O_____________ hurdat_atl AL081952 13.2000 -25.7000 TS 35 0 7 294
1952270N12337 1952 72 NA NA NOT_NAMED 1952-09-26 09:00:00 TS 13.3499 -26.0225 main 930 928 P_____________ AL081952 13.3499 -26.0225 TS 35 0 7 297
1952270N12337 1952 72 NA NA NOT_NAMED 1952-09-26 12:00:00 TS 13.5000 -26.3000 35 hurdat_atl main 958 958 O_____________ hurdat_atl AL081952 13.5000 -26.3000 TS 35 0 6 300
1952270N12337 1952 72 NA NA NOT_NAMED 1952-09-26 15:00:00 TS 13.6500 -26.5650 main 989 987 P_____________ AL081952 13.6500 -26.5650 TS 37 0 6 302
1952270N12337 1952 72 NA NA NOT_NAMED 1952-09-26 18:00:00 TS 13.8000 -26.8000 40 hurdat_atl main 1007 1007 O_____________ hurdat_atl AL081952 13.8000 -26.8000 TS 40 0 5 303
1952270N12337 1952 72 NA NA NOT_NAMED 1952-09-26 21:00:00 TS 13.9425 -27.0225 main 1027 1026 P_____________ AL081952 13.9425 -27.0225 TS 40 0 5 308
1952270N12337 1952 72 NA NA NOT_NAMED 1952-09-27 00:00:00 TS 14.1000 -27.2000 40 hurdat_atl main 1047 1046 O_____________ hurdat_atl AL081952 14.1000 -27.2000 TS 40 0 5 320
1952270N12337 1952 72 NA NA NOT_NAMED 1952-09-27 03:00:00 TS 14.2850 -27.3225 main 1056 1056 P_____________ AL081952 14.2850 -27.3225 TS 40 0 4 334
1952270N12337 1952 72 NA NA NOT_NAMED 1952-09-27 06:00:00 TS 14.5000 -27.4000 40 hurdat_atl main 1065 1065 O_____________ hurdat_atl AL081952 14.5000 -27.4000 TS 40 0 5 342
1952270N12337 1952 72 NA NA NOT_NAMED 1952-09-27 09:00:00 TS 14.7275 -27.4725 main 1075 1075 P_____________ AL081952 14.7275 -27.4725 TS 40 0 5 349
1952270N12337 1952 72 NA NA NOT_NAMED 1952-09-27 12:00:00 TS 15.0000 -27.5000 40 hurdat_atl main 1075 1075 O_____________ hurdat_atl AL081952 15.0000 -27.5000 TS 40 0 6 359
1952270N12337 1952 72 NA NA NOT_NAMED 1952-09-27 15:00:00 TS 15.3275 -27.4725 main 1076 1066 P_____________ AL081952 15.3275 -27.4725 TS 37 0 7 8
1952270N12337 1952 72 NA NA NOT_NAMED 1952-09-27 18:00:00 TS 15.7000 -27.4000 35 hurdat_atl main 1068 1059 O_____________ hurdat_atl AL081952 15.7000 -27.4000 TS 35 0 8 12
1952270N12337 1952 72 NA NA NOT_NAMED 1952-09-27 21:00:00 TS 16.0925 -27.3001 main 1062 1054 P_____________ AL081952 16.0925 -27.3001 TS 35 0 8 14
1952270N12337 1952 72 NA NA NOT_NAMED 1952-09-28 00:00:00 TS 16.5000 -27.2000 35 hurdat_atl main 1058 1056 O_____________ hurdat_atl AL081952 16.5000 -27.2000 TS 35 0 8 11
1952270N12337 1952 72 NA NA NOT_NAMED 1952-09-28 03:00:00 TS 16.9075 -27.1424 main 1056 1056 P_____________ AL081952 16.9075 -27.1424 TS 32 -1 8 7
1952270N12337 1952 72 NA NA NOT_NAMED 1952-09-28 06:00:00 TS 17.3000 -27.1000 30 hurdat_atl main 1066 1065 O_____________ hurdat_atl AL081952 17.3000 -27.1000 TD 30 -1 8 7
1952270N12337 1952 72 NA NA NOT_NAMED 1952-09-28 09:00:00 TS 17.6575 -27.0425 main 1068 1068 P_____________ AL081952 17.6575 -27.0425 TD 30 -1 7 8
1952270N12337 1952 72 NA NA NOT_NAMED 1952-09-28 12:00:00 TS 18.0000 -27.0000 30 hurdat_atl main 1078 1074 O_____________ hurdat_atl AL081952 18.0000 -27.0000 TD 30 -1 7 4
1952270N12337 1952 72 NA NA NOT_NAMED 1952-09-28 15:00:00 TS 18.3425 -26.9925 main 1074 1062 P_____________ AL081952 18.3425 -26.9925 TD 30 -1 7 0
1952270N12337 1952 72 NA NA NOT_NAMED 1952-09-28 18:00:00 TS 18.7000 -27.0000 30 hurdat_atl main 1062 1051 O_____________ hurdat_atl AL081952 18.7000 -27.0000 TD 30 -1 8 0
1952270N12337 1952 72 NA NA NOT_NAMED 1952-09-28 21:00:00 TS 19.0925 -27.0000 main 1051 1043 P_____________ AL081952 19.0925 -27.0000 TD 30 -1 8 359
1952270N12337 1952 72 NA NA NOT_NAMED 1952-09-29 00:00:00 TS 19.5000 -27.0000 30 hurdat_atl main 1043 1036 O_____________ hurdat_atl AL081952 19.5000 -27.0000 TD 30 -1 8 0
1952270N12337 1952 72 NA NA NOT_NAMED 1952-09-29 03:00:00 TS 19.9075 -27.0000 main 1036 1031 P_____________ AL081952 19.9075 -27.0000 TD 30 -1 8 1
1952270N12337 1952 72 NA NA NOT_NAMED 1952-09-29 06:00:00 TS 20.3000 -27.0000 30 hurdat_atl main 1031 1029 O_____________ hurdat_atl AL081952 20.3000 -27.0000 TD 30 -1 8 0
1952270N12337 1952 72 NA NA NOT_NAMED 1952-09-29 09:00:00 TS 20.6575 -27.0000 main 1029 1028 P_____________ AL081952 20.6575 -27.0000 TD 30 -1 7 0
1952270N12337 1952 72 NA NA NOT_NAMED 1952-09-29 12:00:00 TS 21.0000 -27.0000 30 hurdat_atl main 1028 1028 O_____________ hurdat_atl AL081952 21.0000 -27.0000 TD 30 -1 7 0
1952270N12337 1952 72 NA NA NOT_NAMED 1952-09-29 15:00:00 TS 21.3500 -27.0000 main 1028 1028 P_____________ AL081952 21.3500 -27.0000 TD 27 -1 7 0
1952270N12337 1952 72 NA NA NOT_NAMED 1952-09-29 18:00:00 TS 21.7000 -27.0000 25 hurdat_atl main 1030 1030 O_____________ hurdat_atl AL081952 21.7000 -27.0000 TD 25 -1 7 0
1952270N12337 1952 72 NA NA NOT_NAMED 1952-09-29 21:00:00 TS 22.0425 -27.0000 main 1031 1031 P_____________ AL081952 22.0425 -27.0000 TD 25 -1 7 0
1952270N12337 1952 72 NA NA NOT_NAMED 1952-09-30 00:00:00 TS 22.4000 -27.0000 25 hurdat_atl main 1031 1031 O_____________ hurdat_atl AL081952 22.4000 -27.0000 TD 25 -1 8 0
1952270N12337 1952 72 NA NA NOT_NAMED 1952-09-30 03:00:00 TS 22.7925 -27.0000 main 1034 1034 P_____________ AL081952 22.7925 -27.0000 TD 25 -1 8 1
1952270N12337 1952 72 NA NA NOT_NAMED 1952-09-30 06:00:00 TS 23.2000 -27.0000 25 hurdat_atl main 1038 1038 O_____________ hurdat_atl AL081952 23.2000 -27.0000 TD 25 -1 8 0
1952270N12337 1952 72 NA NA NOT_NAMED 1952-09-30 09:00:00 TS 23.6025 -27.0000 main 1044 1044 P_____________ AL081952 23.6025 -27.0000 TD 25 -1 8 1
1952270N12337 1952 72 NA NA NOT_NAMED 1952-09-30 12:00:00 TS 24.0000 -27.0000 25 hurdat_atl main 1052 O_____________ hurdat_atl AL081952 24.0000 -27.0000 TD 25 -1 8 1

About IBTrACS Database

This database is a web-friendly format of International Best Track Archive for Climate Stewardship (IBTrACS), a global best track data archive curated by NOAA dating back to 1842.

Updated: 2021-11-26